Winning Drive — WDG4948 — position and weather

sailwx.info

Track history (hours):
 
Tides and Currents Weather Stations Pressure Air Temp Water Temp Dewpoint Dewpoint Depression Visibility Wind Speed Wind Dir Waves Ship Positions

Winning Drive

Owner: Winning Way LLC, Fort Lauderdale, FL. More information available from US FCC via Universal Licensing System and Coast Guard Vessel Documentation Center.

Last reported at 2015-Aug-05 03:09 UTC. Time now 2015-Aug-05 04:21 UTC.
Position N 38°58' W 076°29'.

Length 40 m; draft 2.7 m.

Type: Pleasure craft. MMSI: 367541760.

Date/timePositionNaut miles runAvg speedWind from/ knotsBaromVisibWave heightAir tempDewpointWater temp
2015-Aug-05 03:09N 38°58' W 076°29'15 1.5
2015-Aug-04 17:33N 39°13' W 076°32'6 5.4
2015-Aug-04 16:31N 39°17' W 076°36'0 0.0
2015-Aug-04 15:13N 39°17' W 076°36'0 0.0
2015-Aug-04 14:31N 39°17' W 076°36'0 0.0
2015-Aug-04 13:13N 39°17' W 076°36'0 0.0
2015-Aug-04 12:19N 39°17' W 076°36'0 0.0
2015-Aug-04 11:28N 39°17' W 076°36'0 0.0
2015-Aug-04 08:31N 39°17' W 076°36'0 0.0
2015-Aug-04 07:25N 39°17' W 076°36'0 0.0
2015-Aug-04 06:31N 39°17' W 076°36'0 0.0
2015-Aug-04 04:31N 39°17' W 076°36'0 0.0
2015-Aug-04 03:13N 39°17' W 076°36'0 0.0
2015-Aug-04 02:07N 39°17' W 076°36'0 0.0
2015-Aug-04 00:31N 39°17' W 076°36'0 0.0
2015-Aug-03 23:25N 39°17' W 076°36'0 0.0
2015-Aug-03 22:31N 39°17' W 076°36'0 0.0
2015-Aug-03 21:31N 39°17' W 076°36'0 0.0
2015-Aug-03 20:33N 39°17' W 076°36'0 0.0
2015-Aug-03 19:33N 39°17' W 076°36'7 7.2
2015-Aug-03 18:34N 39°12' W 076°30'13 2.1
2015-Aug-03 12:08N 38°58' W 076°29'0 0.0
2015-Aug-03 06:29N 38°58' W 076°29'0 0.0
2015-Aug-02 13:32N 38°58' W 076°29'0 0.0
2015-Aug-02 12:32N 38°58' W 076°29'0 0.0
2015-Aug-02 09:32N 38°58' W 076°29'0 0.0
2015-Aug-02 08:29N 38°58' W 076°29'0 0.0
2015-Aug-02 07:32N 38°58' W 076°29'0 0.0
2015-Aug-02 03:32N 38°58' W 076°29'0 0.0
2015-Aug-01 08:32N 38°58' W 076°29'0 0.0
2015-Aug-01 07:29N 38°58' W 076°29'0 0.0
2015-Aug-01 05:26N 38°58' W 076°29'0 0.0
2015-Aug-01 04:29N 38°58' W 076°29'0 0.0
2015-Aug-01 03:32N 38°58' W 076°29'0 0.0
2015-Jul-31 13:17N 38°58' W 076°29'0 0.0
2015-Jul-31 12:32N 38°58' W 076°29'0 0.0
2015-Jul-31 11:32N 38°58' W 076°29'0 0.0
2015-Jul-31 10:32N 38°58' W 076°29'0 0.0
2015-Jul-31 09:32N 38°58' W 076°29'0 0.0
2015-Jul-31 08:29N 38°58' W 076°29'0 0.0
2015-Jul-31 07:32N 38°58' W 076°29'0 0.0
2015-Jul-31 06:32N 38°58' W 076°29'0 0.0
2015-Jul-31 05:32N 38°58' W 076°29'0 0.0
2015-Jul-31 04:32N 38°58' W 076°29'0 0.0
2015-Jul-30 22:26N 38°58' W 076°29'0 0.0
2015-Jul-29 05:32N 38°58' W 076°29'0 0.0
2015-Jul-27 04:20N 38°58' W 076°29'0 0.0
2015-Jul-27 03:31N 38°58' W 076°29'0 0.0
2015-Jul-26 08:19N 38°58' W 076°29'0 0.0
2015-Jul-26 07:19N 38°58' W 076°29'  
Track history (hours):
 
Tides and Currents Weather Stations Pressure Air Temp Water Temp Dewpoint Dewpoint Depression Visibility Wind Speed Wind Dir Waves Ship Positions

Winning Drive

Owner: Winning Way LLC, Fort Lauderdale, FL. More information available from US FCC via Universal Licensing System and Coast Guard Vessel Documentation Center.

Last reported at 2015-Aug-05 03:09 UTC. Time now 2015-Aug-05 04:21 UTC.
Position N 38°58' W 076°29'.

Length 40 m; draft 2.7 m.

Type: Pleasure craft. MMSI: 367541760.

Date/timePositionNaut miles runAvg speedWind from/ knotsBaromVisibWave heightAir tempDewpointWater temp
2015-Aug-05 03:09N 38°58' W 076°29'15 1.5
2015-Aug-04 17:33N 39°13' W 076°32'6 5.4
2015-Aug-04 16:31N 39°17' W 076°36'0 0.0
2015-Aug-04 15:13N 39°17' W 076°36'0 0.0
2015-Aug-04 14:31N 39°17' W 076°36'0 0.0
2015-Aug-04 13:13N 39°17' W 076°36'0 0.0
2015-Aug-04 12:19N 39°17' W 076°36'0 0.0
2015-Aug-04 11:28N 39°17' W 076°36'0 0.0
2015-Aug-04 08:31N 39°17' W 076°36'0 0.0
2015-Aug-04 07:25N 39°17' W 076°36'0 0.0
2015-Aug-04 06:31N 39°17' W 076°36'0 0.0
2015-Aug-04 04:31N 39°17' W 076°36'0 0.0
2015-Aug-04 03:13N 39°17' W 076°36'0 0.0
2015-Aug-04 02:07N 39°17' W 076°36'0 0.0
2015-Aug-04 00:31N 39°17' W 076°36'0 0.0
2015-Aug-03 23:25N 39°17' W 076°36'0 0.0
2015-Aug-03 22:31N 39°17' W 076°36'0 0.0
2015-Aug-03 21:31N 39°17' W 076°36'0 0.0
2015-Aug-03 20:33N 39°17' W 076°36'0 0.0
2015-Aug-03 19:33N 39°17' W 076°36'7 7.2
2015-Aug-03 18:34N 39°12' W 076°30'13 2.1
2015-Aug-03 12:08N 38°58' W 076°29'0 0.0
2015-Aug-03 06:29N 38°58' W 076°29'0 0.0
2015-Aug-02 13:32N 38°58' W 076°29'0 0.0
2015-Aug-02 12:32N 38°58' W 076°29'0 0.0
2015-Aug-02 09:32N 38°58' W 076°29'0 0.0
2015-Aug-02 08:29N 38°58' W 076°29'0 0.0
2015-Aug-02 07:32N 38°58' W 076°29'0 0.0
2015-Aug-02 03:32N 38°58' W 076°29'0 0.0
2015-Aug-01 08:32N 38°58' W 076°29'0 0.0
2015-Aug-01 07:29N 38°58' W 076°29'0 0.0
2015-Aug-01 05:26N 38°58' W 076°29'0 0.0
2015-Aug-01 04:29N 38°58' W 076°29'0 0.0
2015-Aug-01 03:32N 38°58' W 076°29'0 0.0
2015-Jul-31 13:17N 38°58' W 076°29'0 0.0
2015-Jul-31 12:32N 38°58' W 076°29'0 0.0
2015-Jul-31 11:32N 38°58' W 076°29'0 0.0
2015-Jul-31 10:32N 38°58' W 076°29'0 0.0
2015-Jul-31 09:32N 38°58' W 076°29'0 0.0
2015-Jul-31 08:29N 38°58' W 076°29'0 0.0
2015-Jul-31 07:32N 38°58' W 076°29'0 0.0
2015-Jul-31 06:32N 38°58' W 076°29'0 0.0
2015-Jul-31 05:32N 38°58' W 076°29'0 0.0
2015-Jul-31 04:32N 38°58' W 076°29'0 0.0
2015-Jul-30 22:26N 38°58' W 076°29'0 0.0
2015-Jul-29 05:32N 38°58' W 076°29'0 0.0
2015-Jul-27 04:20N 38°58' W 076°29'0 0.0
2015-Jul-27 03:31N 38°58' W 076°29'0 0.0
2015-Jul-26 08:19N 38°58' W 076°29'0 0.0
2015-Jul-26 07:19N 38°58' W 076°29'  

Dump ship's entire track history